Time;durP1;ratioP1;P1;durP2;ratioP2;P2;SDS_P1;SDS_P2;PMS_P1;PMS_P2;Temp;Humidity;BMP_temperature;BMP_pressure;BME280_temperature;BME280_humidity;BME280_pressure;Samples;Min_cycle;Max_cycle;Signal;HPM_P1;HPM_P2
2023/09/18 00:08:08;;;;;;;26.70;19.77;;;17.10;99.90;;;;;;4967255;29;20047;-81
2023/09/18 00:10:35;;;;;;;23.15;19.30;;;17.10;99.90;;;;;;4917293;28;20055;-81
2023/09/18 00:13:02;;;;;;;25.52;19.38;;;17.10;99.90;;;;;;4975038;28;20093;-81
2023/09/18 00:15:29;;;;;;;24.73;19.25;;;17.10;99.90;;;;;;4974796;28;20042;-81
2023/09/18 00:17:55;;;;;;;24.05;18.38;;;17.00;99.90;;;;;;4974709;28;20043;-81
2023/09/18 00:20:26;;;;;;;22.48;18.80;;;17.00;99.90;;;;;;4995154;28;20057;-81
2023/09/18 00:22:56;;;;;;;21.35;17.35;;;17.00;99.90;;;;;;4994692;28;20482;-81
2023/09/18 00:25:23;;;;;;;24.67;19.02;;;17.00;99.90;;;;;;4994207;28;20035;-81
2023/09/18 00:31:32;;;;;;;21.85;16.98;;;17.00;99.90;;;;;;5025918;28;20534;-81
2023/09/18 00:33:58;;;;;;;21.55;18.20;;;16.90;99.90;;;;;;4994143;28;20042;-81
2023/09/18 00:36:25;;;;;;;20.73;17.45;;;16.90;99.90;;;;;;4994087;28;20042;-81
2023/09/18 00:38:52;;;;;;;23.13;18.05;;;16.90;99.90;;;;;;4993577;28;20043;-81
2023/09/18 00:41:18;;;;;;;21.50;17.45;;;16.90;99.90;;;;;;4993977;28;20045;-81
2023/09/18 00:43:45;;;;;;;22.83;16.75;;;16.80;99.90;;;;;;4993519;28;20129;-81
2023/09/18 00:46:12;;;;;;;21.10;17.00;;;16.80;99.90;;;;;;4993638;28;20507;-81
2023/09/18 00:48:40;;;;;;;20.95;17.13;;;16.80;99.90;;;;;;4993794;28;20077;-81
2023/09/18 00:51:08;;;;;;;21.20;17.83;;;16.80;99.90;;;;;;5009649;28;20053;-81
2023/09/18 00:53:35;;;;;;;22.55;17.83;;;16.80;99.90;;;;;;4994180;28;20042;-81
2023/09/18 00:56:04;;;;;;;24.08;18.80;;;16.80;99.90;;;;;;5010068;28;20088;-81
2023/09/18 00:58:31;;;;;;;23.05;17.40;;;16.80;99.90;;;;;;4991870;28;20043;-82
2023/09/18 01:00:59;;;;;;;21.58;18.30;;;16.80;99.90;;;;;;5004792;28;20027;-81
2023/09/18 01:03:25;;;;;;;22.17;16.33;;;16.80;99.90;;;;;;4990505;28;20062;-81
2023/09/18 01:05:53;;;;;;;21.17;17.60;;;16.80;99.90;;;;;;4974022;28;20042;-81
2023/09/18 01:08:20;;;;;;;28.42;17.95;;;16.80;99.90;;;;;;4974280;28;20047;-81
2023/09/18 01:11:03;;;;;;;21.52;18.42;;;16.70;99.90;;;;;;4974416;28;20062;-81
2023/09/18 01:13:41;;;;;;;22.95;18.95;;;16.80;99.90;;;;;;5022777;28;20062;-81
2023/09/18 01:16:15;;;;;;;21.70;17.95;;;16.80;99.90;;;;;;4990670;28;20039;-81
2023/09/18 01:18:52;;;;;;;21.80;17.95;;;16.80;99.90;;;;;;4992484;28;20051;-82
2023/09/18 01:21:20;;;;;;;22.63;18.58;;;16.80;99.90;;;;;;5012153;28;20103;-81
2023/09/18 01:23:49;;;;;;;24.67;18.77;;;16.80;99.90;;;;;;4996731;28;20513;-82
2023/09/18 01:26:15;;;;;;;26.10;20.27;;;16.90;99.90;;;;;;4997348;28;20038;-81
2023/09/18 01:28:42;;;;;;;24.23;19.30;;;16.90;99.90;;;;;;4996590;28;20053;-81
2023/09/18 01:31:09;;;;;;;25.80;19.00;;;16.90;99.90;;;;;;5012949;28;20038;-82
2023/09/18 01:33:38;;;;;;;21.98;18.40;;;16.90;99.90;;;;;;4996681;28;20045;-81
2023/09/18 01:36:08;;;;;;;24.15;19.30;;;16.90;99.90;;;;;;5012658;28;20046;-81
2023/09/18 01:38:36;;;;;;;22.00;18.40;;;16.90;99.90;;;;;;5012649;28;20042;-81
2023/09/18 01:41:03;;;;;;;22.13;17.83;;;16.90;99.90;;;;;;5015706;28;20119;-81
2023/09/18 01:43:30;;;;;;;23.33;17.92;;;16.80;99.90;;;;;;5000323;28;20124;-81
2023/09/18 01:45:57;;;;;;;23.63;18.15;;;16.90;99.90;;;;;;5000135;28;20781;-82
2023/09/18 01:48:24;;;;;;;19.60;17.02;;;16.90;99.90;;;;;;5000404;28;20181;-81
2023/09/18 01:50:50;;;;;;;22.55;17.65;;;16.80;99.90;;;;;;5015876;28;20044;-82
2023/09/18 01:53:17;;;;;;;23.05;17.65;;;16.80;99.90;;;;;;4993414;28;20045;-81
2023/09/18 01:55:44;;;;;;;17.75;15.82;;;16.80;99.90;;;;;;4980903;28;20538;-83
2023/09/18 01:58:14;;;;;;;20.42;16.80;;;16.80;99.90;;;;;;4980622;28;20043;-82
2023/09/18 02:00:40;;;;;;;23.17;17.48;;;16.80;99.90;;;;;;4981288;28;20517;-82
2023/09/18 02:03:07;;;;;;;22.67;17.27;;;16.80;99.90;;;;;;4980497;28;20042;-82
2023/09/18 02:05:34;;;;;;;20.85;16.98;;;16.90;99.90;;;;;;4996365;28;20125;-81
2023/09/18 02:08:02;;;;;;;22.17;16.55;;;16.80;99.90;;;;;;4980354;28;20522;-82
2023/09/18 02:10:29;;;;;;;22.02;16.40;;;16.80;99.90;;;;;;4980705;28;20149;-82
2023/09/18 02:12:56;;;;;;;22.08;16.48;;;16.80;99.90;;;;;;4980410;28;20058;-82
2023/09/18 02:15:22;;;;;;;24.20;15.93;;;16.80;99.90;;;;;;4996540;28;20085;-81
2023/09/18 02:17:49;;;;;;;23.83;16.20;;;16.80;99.90;;;;;;4980246;28;20053;-82
2023/09/18 02:20:18;;;;;;;19.17;16.17;;;16.80;99.90;;;;;;4980148;28;20121;-82
2023/09/18 02:22:46;;;;;;;19.30;15.45;;;16.80;99.90;;;;;;4980644;28;20049;-82
2023/09/18 02:25:13;;;;;;;17.48;14.80;;;16.80;99.90;;;;;;4980176;28;20077;-81
2023/09/18 02:27:40;;;;;;;23.95;14.93;;;16.80;99.90;;;;;;4980538;28;20042;-82
2023/09/18 02:30:07;;;;;;;19.08;14.68;;;16.80;99.90;;;;;;4995802;28;20053;-81
2023/09/18 02:32:34;;;;;;;19.35;15.27;;;16.80;99.90;;;;;;4996160;28;20163;-81
2023/09/18 02:35:01;;;;;;;18.17;14.50;;;16.90;99.90;;;;;;4979857;28;20042;-82
2023/09/18 02:37:29;;;;;;;19.48;15.20;;;17.00;99.90;;;;;;4979780;28;20046;-81
2023/09/18 02:39:55;;;;;;;18.75;15.25;;;17.00;99.90;;;;;;4979877;28;20042;-82
2023/09/18 02:42:22;;;;;;;20.38;14.85;;;17.00;99.90;;;;;;4980163;28;20125;-81
2023/09/18 02:44:49;;;;;;;19.70;14.57;;;17.10;99.90;;;;;;4995849;28;20034;-81
2023/09/18 02:47:15;;;;;;;17.77;14.68;;;17.10;99.90;;;;;;5012859;28;20120;-81
2023/09/18 02:49:42;;;;;;;18.17;13.68;;;17.20;99.90;;;;;;4999204;28;20042;-81
2023/09/18 02:52:09;;;;;;;23.13;15.43;;;17.20;99.90;;;;;;4998056;28;20044;-82
2023/09/18 02:54:35;;;;;;;22.70;14.68;;;17.20;99.90;;;;;;4999038;28;20104;-81
2023/09/18 02:57:02;;;;;;;18.20;13.98;;;17.20;99.90;;;;;;4985873;28;20049;-81
2023/09/18 02:59:32;;;;;;;18.20;14.45;;;17.20;99.90;;;;;;4979712;28;20042;-82
2023/09/18 03:01:58;;;;;;;20.15;14.57;;;17.20;99.90;;;;;;4979832;28;20073;-82
2023/09/18 03:04:25;;;;;;;19.45;13.55;;;17.20;99.90;;;;;;4995367;28;20431;-81
2023/09/18 03:06:52;;;;;;;17.02;14.27;;;17.30;99.90;;;;;;4979585;28;20125;-81
2023/09/18 03:09:18;;;;;;;21.05;14.57;;;17.20;99.90;;;;;;4995137;28;20038;-81
2023/09/18 03:11:45;;;;;;;18.17;13.57;;;17.30;99.90;;;;;;4979536;28;20035;-81
2023/09/18 03:14:12;;;;;;;20.40;14.00;;;17.30;99.90;;;;;;4994983;28;20427;-81
2023/09/18 03:16:39;;;;;;;19.38;13.10;;;17.30;99.90;;;;;;4980386;28;20121;-81
2023/09/18 03:19:06;;;;;;;19.70;13.25;;;17.30;99.90;;;;;;5014280;28;20133;-81
2023/09/18 03:21:35;;;;;;;17.38;13.55;;;17.30;99.90;;;;;;4998467;28;20037;-81
2023/09/18 03:24:02;;;;;;;18.63;12.90;;;17.30;99.90;;;;;;4998857;28;20046;-81
2023/09/18 03:26:29;;;;;;;23.02;12.90;;;17.20;99.90;;;;;;4998963;28;20077;-81
2023/09/18 03:28:56;;;;;;;19.23;13.40;;;17.20;99.90;;;;;;5008369;28;20077;-81
2023/09/18 03:31:23;;;;;;;16.90;13.10;;;17.20;99.90;;;;;;4995009;28;20046;-81
2023/09/18 03:33:49;;;;;;;18.85;13.30;;;17.20;99.90;;;;;;4978978;28;20049;-81
2023/09/18 03:36:16;;;;;;;17.73;13.45;;;17.20;99.90;;;;;;4994498;28;20133;-81
2023/09/18 03:38:42;;;;;;;18.70;12.70;;;17.20;99.90;;;;;;5004432;28;20045;-81
2023/09/18 03:41:09;;;;;;;17.80;13.48;;;17.20;99.90;;;;;;4998172;28;20038;-82
2023/09/18 03:43:36;;;;;;;17.75;12.85;;;17.20;99.90;;;;;;5014400;28;20128;-82
2023/09/18 03:46:04;;;;;;;16.10;13.23;;;17.20;99.90;;;;;;4997720;28;20049;-81
2023/09/18 03:48:36;;;;;;;17.42;13.02;;;17.20;99.90;;;;;;5014405;28;20046;-81
2023/09/18 03:51:07;;;;;;;19.25;12.57;;;17.20;99.90;;;;;;4998405;28;20409;-81
2023/09/18 03:53:34;;;;;;;17.55;13.25;;;17.20;99.90;;;;;;5014129;28;20125;-82
2023/09/18 03:56:01;;;;;;;18.30;13.95;;;17.20;99.90;;;;;;5013806;28;20184;-83
2023/09/18 03:58:28;;;;;;;20.55;13.88;;;17.20;99.90;;;;;;4997928;28;20498;-82
2023/09/18 04:00:55;;;;;;;16.65;13.10;;;17.20;99.90;;;;;;4997965;28;20038;-81
2023/09/18 04:03:22;;;;;;;16.88;13.55;;;17.20;99.90;;;;;;5012648;28;20046;-81
2023/09/18 04:05:49;;;;;;;18.38;13.70;;;17.20;99.90;;;;;;4997791;28;20049;-81
2023/09/18 04:08:15;;;;;;;23.05;13.60;;;17.10;99.90;;;;;;4997521;28;20125;-82
2023/09/18 04:10:43;;;;;;;17.60;13.18;;;17.10;99.90;;;;;;4997636;28;20045;-81
2023/09/18 04:13:10;;;;;;;16.63;12.98;;;17.20;99.90;;;;;;4997615;28;20733;-81
2023/09/18 04:15:38;;;;;;;18.27;13.60;;;17.20;99.90;;;;;;5013752;28;20046;-81
2023/09/18 04:18:05;;;;;;;18.48;12.85;;;17.20;99.90;;;;;;4997426;28;20090;-81
2023/09/18 04:20:32;;;;;;;18.52;13.80;;;17.20;99.90;;;;;;4989968;28;20124;-81
2023/09/18 04:23:28;;;;;;;20.50;13.32;;;17.20;99.90;;;;;;4994153;28;20042;-81
2023/09/18 04:25:55;;;;;;;18.40;13.00;;;17.20;99.90;;;;;;4962293;28;20046;-81
2023/09/18 04:28:22;;;;;;;18.15;12.73;;;17.10;99.90;;;;;;4994021;28;20403;-81
2023/09/18 04:30:49;;;;;;;18.42;12.80;;;17.20;99.90;;;;;;5014847;28;20151;-81
2023/09/18 04:33:17;;;;;;;16.27;12.50;;;17.20;99.90;;;;;;4997586;28;20089;-81
2023/09/18 04:35:45;;;;;;;21.25;12.90;;;17.20;99.90;;;;;;4997769;28;20042;-81
2023/09/18 04:38:14;;;;;;;18.70;12.40;;;17.10;99.90;;;;;;4998498;28;20111;-82
2023/09/18 04:40:41;;;;;;;17.50;13.68;;;17.20;99.90;;;;;;5029677;28;20085;-82
2023/09/18 04:43:08;;;;;;;16.33;12.35;;;17.20;99.90;;;;;;4978203;28;20097;-82
2023/09/18 04:45:34;;;;;;;17.73;12.77;;;17.20;99.90;;;;;;4993811;28;20093;-81
2023/09/18 04:48:01;;;;;;;20.33;12.80;;;17.20;99.90;;;;;;4994284;28;20402;-81
2023/09/18 04:50:28;;;;;;;19.15;12.30;;;17.20;99.90;;;;;;4993581;28;20612;-80
2023/09/18 04:52:55;;;;;;;20.20;12.32;;;17.20;99.90;;;;;;4989620;28;20510;-81
2023/09/18 04:55:22;;;;;;;17.80;12.07;;;17.30;99.90;;;;;;5013077;28;20490;-81
2023/09/18 04:57:49;;;;;;;18.33;12.10;;;17.30;99.90;;;;;;4997168;28;20160;-81
2023/09/18 05:00:16;;;;;;;18.73;12.10;;;17.30;99.90;;;;;;4996498;28;20042;-81
2023/09/18 05:02:43;;;;;;;17.35;11.52;;;17.30;99.90;;;;;;4990956;28;20065;-81
2023/09/18 05:05:10;;;;;;;16.35;12.00;;;17.40;99.90;;;;;;4993823;28;20044;-80
2023/09/18 05:07:37;;;;;;;15.50;11.23;;;17.40;99.90;;;;;;4993177;28;20129;-81
2023/09/18 05:10:07;;;;;;;14.40;10.60;;;17.40;99.90;;;;;;4994013;28;20386;-81
2023/09/18 05:12:33;;;;;;;17.02;11.75;;;17.40;99.90;;;;;;4993397;28;20042;-81
2023/09/18 05:15:00;;;;;;;14.93;10.65;;;17.50;99.90;;;;;;4999044;28;20088;-81
2023/09/18 05:17:51;;;;;;;15.88;10.60;;;17.50;99.90;;;;;;5014585;28;20076;-81
2023/09/18 05:20:19;;;;;;;15.68;10.95;;;17.50;99.90;;;;;;5003600;28;20129;-81
2023/09/18 05:22:45;;;;;;;15.20;11.02;;;17.50;99.90;;;;;;4997261;28;20107;-81
2023/09/18 05:25:15;;;;;;;16.05;11.07;;;17.50;99.90;;;;;;5015983;28;20046;-81
2023/09/18 05:27:44;;;;;;;16.60;11.80;;;17.50;99.90;;;;;;5016472;28;20053;-81
2023/09/18 05:30:16;;;;;;;16.27;11.02;;;17.60;99.90;;;;;;5000895;28;20502;-81
2023/09/18 05:32:44;;;;;;;15.20;10.52;;;17.60;99.90;;;;;;5032819;28;20088;-81
2023/09/18 05:35:12;;;;;;;15.57;10.60;;;17.60;99.90;;;;;;4999319;28;20042;-81
2023/09/18 05:37:39;;;;;;;15.48;10.25;;;17.70;99.90;;;;;;5016280;28;20045;-81
2023/09/18 05:40:09;;;;;;;15.70;10.50;;;17.60;99.90;;;;;;5016487;28;20483;-80
2023/09/18 05:42:42;;;;;;;14.18;9.93;;;17.70;99.90;;;;;;5000342;28;20046;-81
2023/09/18 05:45:14;;;;;;;14.98;10.50;;;17.70;99.90;;;;;;5015383;28;20042;-81
2023/09/18 05:47:42;;;;;;;15.45;10.65;;;17.70;99.90;;;;;;5000473;28;20095;-81
2023/09/18 05:50:10;;;;;;;14.80;9.75;;;17.70;99.90;;;;;;5001152;28;20038;-81
2023/09/18 05:52:36;;;;;;;15.95;10.30;;;17.70;99.90;;;;;;5033832;28;20050;-81
2023/09/18 05:55:03;;;;;;;18.42;10.30;;;17.80;99.90;;;;;;4995256;28;20038;-81
2023/09/18 05:57:30;;;;;;;15.27;10.15;;;17.80;99.90;;;;;;4980641;28;20038;-81
2023/09/18 05:59:58;;;;;;;14.77;9.88;;;17.80;99.90;;;;;;4996770;28;20096;-81
2023/09/18 06:02:25;;;;;;;16.83;10.00;;;17.80;99.90;;;;;;4980280;28;20046;-80
2023/09/18 06:04:57;;;;;;;15.13;9.90;;;17.80;99.90;;;;;;4980557;28;20049;-80
2023/09/18 06:07:27;;;;;;;14.63;9.43;;;17.80;99.90;;;;;;4995905;28;20137;-81
2023/09/18 06:09:54;;;;;;;17.42;9.65;;;17.90;99.90;;;;;;4996641;28;20038;-81
2023/09/18 06:12:21;;;;;;;13.35;9.40;;;17.90;99.90;;;;;;4996220;28;20053;-81
2023/09/18 06:14:48;;;;;;;15.48;9.25;;;17.90;99.90;;;;;;4980458;28;20077;-81
2023/09/18 06:17:16;;;;;;;12.07;8.68;;;17.90;99.90;;;;;;4993103;28;20046;-81
2023/09/18 06:19:43;;;;;;;17.10;9.93;;;18.00;99.90;;;;;;4999136;28;20058;-81
2023/09/18 06:22:10;;;;;;;14.63;9.43;;;18.00;99.90;;;;;;5015390;28;20454;-81
2023/09/18 06:24:36;;;;;;;14.38;9.25;;;18.10;99.90;;;;;;4999139;28;20034;-81
2023/09/18 06:27:04;;;;;;;18.65;9.55;;;18.10;99.90;;;;;;4991876;28;20509;-81
2023/09/18 06:29:34;;;;;;;17.23;9.43;;;18.10;99.90;;;;;;4979582;28;20074;-81
2023/09/18 06:32:01;;;;;;;12.43;8.50;;;18.10;99.90;;;;;;4996232;28;20381;-81
2023/09/18 06:34:31;;;;;;;14.80;9.32;;;18.10;99.90;;;;;;4995510;28;20092;-81
2023/09/18 06:36:57;;;;;;;14.88;8.90;;;18.20;99.90;;;;;;4980308;28;20180;-81
2023/09/18 06:39:25;;;;;;;14.35;8.35;;;18.20;99.90;;;;;;4979629;28;20455;-80
2023/09/18 06:41:52;;;;;;;17.80;8.38;;;18.20;99.90;;;;;;4980169;28;20042;-80
2023/09/18 06:44:19;;;;;;;14.65;8.23;;;18.20;99.90;;;;;;4988014;28;20088;-80
2023/09/18 06:46:45;;;;;;;12.88;7.45;;;18.20;99.90;;;;;;4998978;28;20160;-80
2023/09/18 06:49:12;;;;;;;11.23;7.40;;;18.30;99.90;;;;;;4984086;28;20129;-84
2023/09/18 06:51:39;;;;;;;12.98;7.38;;;18.30;99.90;;;;;;4979884;28;20045;-85
2023/09/18 06:54:06;;;;;;;9.57;6.95;;;18.30;99.90;;;;;;4979898;28;20046;-84
2023/09/18 06:56:33;;;;;;;13.18;6.93;;;18.30;99.90;;;;;;4979320;28;20068;-85
2023/09/18 06:58:59;;;;;;;11.55;7.20;;;18.40;99.90;;;;;;4988075;28;20033;-85
2023/09/18 07:01:28;;;;;;;13.45;6.38;;;18.40;99.90;;;;;;4998642;28;20077;-85
2023/09/18 07:03:56;;;;;;;12.60;6.38;;;18.40;99.90;;;;;;4999281;28;20041;-84
2023/09/18 07:06:22;;;;;;;11.90;6.80;;;18.40;99.90;;;;;;4998911;28;20044;-84
2023/09/18 07:08:49;;;;;;;11.13;6.57;;;18.40;99.90;;;;;;4993557;28;20469;-84
2023/09/18 07:11:17;;;;;;;10.45;5.97;;;18.40;99.90;;;;;;4979192;28;20134;-85
2023/09/18 07:13:44;;;;;;;12.07;6.35;;;18.40;99.90;;;;;;4995083;28;20081;-84
2023/09/18 07:16:11;;;;;;;10.68;6.18;;;18.40;99.90;;;;;;4995109;28;20088;-85
2023/09/18 07:18:38;;;;;;;13.68;6.50;;;18.40;99.90;;;;;;4978982;28;20155;-84
2023/09/18 07:21:05;;;;;;;10.20;6.35;;;18.40;99.90;;;;;;4981917;28;20129;-84
2023/09/18 07:23:31;;;;;;;16.85;6.53;;;18.40;99.90;;;;;;4978723;28;20046;-84
2023/09/18 07:25:58;;;;;;;11.27;6.57;;;18.40;99.90;;;;;;4993899;28;20552;-84
2023/09/18 07:28:25;;;;;;;16.88;6.88;;;18.40;99.90;;;;;;4988120;28;20058;-84
2023/09/18 07:30:52;;;;;;;12.23;6.50;;;18.40;99.90;;;;;;4978716;28;20088;-84
2023/09/18 07:33:19;;;;;;;10.30;6.90;;;18.40;99.90;;;;;;4995045;28;20042;-84
2023/09/18 07:35:53;;;;;;;13.85;7.47;;;18.40;99.90;;;;;;4997788;28;20038;-84
2023/09/18 07:38:19;;;;;;;11.40;7.15;;;18.40;99.90;;;;;;5013763;28;20501;-84
2023/09/18 07:40:47;;;;;;;13.38;7.45;;;18.40;99.90;;;;;;5014077;28;20042;-85
2023/09/18 07:43:15;;;;;;;19.98;7.28;;;18.40;99.90;;;;;;5014171;28;20065;-85
2023/09/18 07:45:41;;;;;;;15.95;7.93;;;18.40;99.90;;;;;;5013710;28;20137;-85
2023/09/18 07:48:08;;;;;;;13.15;7.30;;;18.40;99.90;;;;;;4998098;28;20489;-84
2023/09/18 07:50:35;;;;;;;18.17;8.50;;;18.40;99.90;;;;;;5013465;28;20042;-85
2023/09/18 07:53:02;;;;;;;15.48;8.60;;;18.50;99.90;;;;;;4997976;28;20489;-84
2023/09/18 07:55:29;;;;;;;14.38;8.63;;;18.50;99.90;;;;;;5014051;28;20481;-85
2023/09/18 07:57:58;;;;;;;14.65;8.73;;;18.50;99.90;;;;;;4997585;28;20042;-85
2023/09/18 08:00:25;;;;;;;17.95;9.10;;;18.60;99.90;;;;;;4998431;28;20050;-85
2023/09/18 08:02:58;;;;;;;19.13;9.52;;;18.70;99.90;;;;;;4997715;28;20053;-85
2023/09/18 08:05:27;;;;;;;18.95;9.55;;;18.80;99.90;;;;;;5013793;28;20129;-85
2023/09/18 08:07:58;;;;;;;16.40;8.68;;;18.80;99.90;;;;;;5013664;28;20499;-86
2023/09/18 08:10:25;;;;;;;12.43;8.65;;;18.90;99.90;;;;;;4993584;28;20542;-85
2023/09/18 08:12:53;;;;;;;17.42;9.73;;;18.90;99.90;;;;;;4995707;28;20133;-85
2023/09/18 08:15:20;;;;;;;13.25;8.85;;;19.00;99.90;;;;;;4993652;28;20100;-85
2023/09/18 08:17:49;;;;;;;11.05;7.57;;;19.00;99.90;;;;;;5009296;28;20065;-85
2023/09/18 08:20:16;;;;;;;10.23;7.55;;;19.10;99.90;;;;;;4978128;28;20423;-85
2023/09/18 08:22:44;;;;;;;11.52;7.35;;;19.10;99.90;;;;;;4993440;28;20080;-84
2023/09/18 08:25:11;;;;;;;8.65;6.38;;;19.10;99.90;;;;;;4993570;28;20539;-84
2023/09/18 08:27:41;;;;;;;10.10;6.25;;;19.10;99.90;;;;;;4977894;28;20046;-85
2023/09/18 08:30:10;;;;;;;9.93;6.00;;;19.10;99.90;;;;;;4993697;28;20053;-84
2023/09/18 08:32:40;;;;;;;10.10;6.05;;;19.10;99.90;;;;;;4993739;28;20042;-85
2023/09/18 08:35:08;;;;;;;8.73;5.82;;;19.10;99.90;;;;;;4993759;28;20507;-85
2023/09/18 08:37:34;;;;;;;8.90;5.97;;;19.20;99.90;;;;;;4977831;28;20043;-84
2023/09/18 08:40:09;;;;;;;9.90;5.90;;;19.20;99.90;;;;;;4977560;28;20069;-85
2023/09/18 08:42:39;;;;;;;9.03;5.63;;;19.20;99.90;;;;;;4993806;28;20043;-85
2023/09/18 08:45:11;;;;;;;7.45;5.30;;;19.20;99.90;;;;;;5002102;28;20034;-85
2023/09/18 08:47:42;;;;;;;7.88;5.28;;;19.20;99.90;;;;;;5012897;28;20506;-85
2023/09/18 08:50:10;;;;;;;8.27;5.15;;;19.20;99.90;;;;;;4999062;28;20508;-84
2023/09/18 08:52:37;;;;;;;8.60;5.50;;;19.10;99.90;;;;;;5017294;28;20057;-84
2023/09/18 08:55:05;;;;;;;8.63;5.72;;;19.10;99.90;;;;;;5000835;28;20545;-85
2023/09/18 08:57:33;;;;;;;8.52;5.60;;;19.10;99.90;;;;;;5017007;28;20041;-85
2023/09/18 09:00:06;;;;;;;9.60;5.15;;;19.00;99.90;;;;;;5000610;28;20509;-85
2023/09/18 09:02:36;;;;;;;7.78;5.88;;;19.00;99.90;;;;;;5001768;28;20073;-85
2023/09/18 09:05:03;;;;;;;8.25;6.30;;;19.00;99.90;;;;;;5009193;28;20045;-85
2023/09/18 09:07:31;;;;;;;10.55;6.35;;;19.00;99.90;;;;;;4981353;28;20419;-85
2023/09/18 09:09:58;;;;;;;9.65;5.85;;;19.00;99.90;;;;;;4981390;28;20078;-85
2023/09/18 09:12:48;;;;;;;8.32;5.88;;;19.00;99.90;;;;;;4984303;28;20077;-85
2023/09/18 09:15:15;;;;;;;8.18;5.93;;;19.00;99.90;;;;;;5016479;28;20502;-85
2023/09/18 09:17:44;;;;;;;8.95;5.90;;;19.00;99.90;;;;;;5000357;28;20061;-84
2023/09/18 09:20:15;;;;;;;11.43;6.07;;;19.00;99.90;;;;;;4997046;28;20120;-85
2023/09/18 09:22:42;;;;;;;9.82;6.82;;;19.00;99.90;;;;;;4996880;28;20547;-84
2023/09/18 09:25:21;;;;;;;10.35;6.65;;;19.10;99.90;;;;;;5012991;28;20078;-84
2023/09/18 09:27:48;;;;;;;10.52;6.90;;;19.10;99.90;;;;;;4997068;28;20050;-84
2023/09/18 09:30:23;;;;;;;13.25;6.50;;;19.10;99.90;;;;;;5012796;28;20242;-85
2023/09/18 09:32:55;;;;;;;10.90;6.90;;;19.10;99.90;;;;;;5012917;28;20474;-85
2023/09/18 09:35:23;;;;;;;12.02;7.20;;;19.20;99.90;;;;;;5013078;28;20042;-85
2023/09/18 09:37:51;;;;;;;16.25;7.30;;;19.20;99.90;;;;;;5012324;28;20046;-85
2023/09/18 09:40:20;;;;;;;11.70;7.50;;;19.20;99.90;;;;;;4997070;28;20442;-84
2023/09/18 09:42:47;;;;;;;13.85;7.70;;;19.20;99.90;;;;;;5012959;28;20483;-85
2023/09/18 09:45:16;;;;;;;13.75;8.25;;;19.20;99.90;;;;;;5013019;28;20485;-86
2023/09/18 09:47:43;;;;;;;13.35;7.40;;;19.20;99.90;;;;;;5013269;28;20050;-85
2023/09/18 09:50:15;;;;;;;12.25;8.32;;;19.20;99.90;;;;;;4996681;28;20058;-85
2023/09/18 09:52:48;;;;;;;12.27;8.70;;;19.20;99.90;;;;;;4996586;28;20054;-86
2023/09/18 09:55:24;;;;;;;12.93;8.13;;;19.20;99.90;;;;;;5012859;28;20049;-85
2023/09/18 09:58:02;;;;;;;14.65;8.77;;;19.30;99.90;;;;;;4997233;28;20034;-86
2023/09/18 10:00:40;;;;;;;13.27;8.88;;;19.30;99.90;;;;;;4996505;28;20045;-85
2023/09/18 10:03:08;;;;;;;13.05;9.05;;;19.40;99.90;;;;;;4992727;28;20145;-85
2023/09/18 10:05:37;;;;;;;13.50;9.80;;;19.50;99.90;;;;;;4977207;28;20034;-85
2023/09/18 10:08:27;;;;;;;14.40;9.02;;;19.70;99.90;;;;;;4977393;28;20034;-85
2023/09/18 10:11:07;;;;;;;14.82;9.30;;;19.80;99.90;;;;;;4985689;28;20055;-85
2023/09/18 10:13:55;;;;;;;14.35;9.05;;;19.90;99.90;;;;;;4992787;28;20038;-85
2023/09/18 10:16:27;;;;;;;16.83;8.88;;;20.00;99.90;;;;;;4993385;28;20400;-85
2023/09/18 10:19:21;;;;;;;14.88;9.40;;;20.20;99.90;;;;;;4976808;28;20043;-85
2023/09/18 10:22:00;;;;;;;12.73;8.93;;;20.20;99.90;;;;;;5008908;28;20108;-85
2023/09/18 10:24:30;;;;;;;13.95;9.10;;;20.30;99.90;;;;;;5015725;28;20038;-84
2023/09/18 10:27:04;;;;;;;14.27;9.05;;;20.30;99.90;;;;;;5014893;28;20514;-86
2023/09/18 10:29:33;;;;;;;15.35;9.18;;;20.40;99.90;;;;;;5015524;28;20042;-85
2023/09/18 10:32:05;;;;;;;13.45;9.50;;;20.40;99.90;;;;;;5015643;28;20057;-86
2023/09/18 10:34:33;;;;;;;14.82;8.93;;;20.50;99.90;;;;;;5032224;28;20395;-86
2023/09/18 10:37:06;;;;;;;13.25;10.18;;;20.60;99.90;;;;;;4998919;28;20092;-86
2023/09/18 10:39:39;;;;;;;14.68;9.35;;;20.80;99.90;;;;;;5000119;28;20402;-85
2023/09/18 10:42:08;;;;;;;11.07;8.82;;;20.90;99.90;;;;;;5008565;28;20088;-85
2023/09/18 10:44:39;;;;;;;13.25;9.00;;;20.90;99.90;;;;;;4979462;28;20053;-85
2023/09/18 10:47:08;;;;;;;11.48;8.45;;;20.80;99.90;;;;;;4995506;28;20089;-86
2023/09/18 10:49:36;;;;;;;12.35;8.93;;;20.80;99.90;;;;;;5011856;28;20044;-86
2023/09/18 10:52:03;;;;;;;11.77;8.23;;;20.90;99.90;;;;;;4997290;28;20498;-86
2023/09/18 10:54:31;;;;;;;12.60;8.00;;;20.90;99.90;;;;;;4999346;28;20068;-86
2023/09/18 10:56:58;;;;;;;11.50;7.82;;;21.00;99.90;;;;;;5014679;28;20095;-85
2023/09/18 10:59:25;;;;;;;12.52;8.25;;;21.10;99.90;;;;;;4998554;28;20490;-85
2023/09/18 11:01:53;;;;;;;15.13;8.63;;;21.10;99.90;;;;;;5014806;28;20053;-85
2023/09/18 11:04:22;;;;;;;11.77;7.68;;;21.10;99.90;;;;;;5013755;28;20046;-85
2023/09/18 11:06:55;;;;;;;10.63;7.10;;;21.20;99.90;;;;;;5014712;28;20482;-85
2023/09/18 11:09:23;;;;;;;13.82;6.93;;;21.30;99.90;;;;;;5014454;28;20053;-84
2023/09/18 11:12:09;;;;;;;9.73;6.38;;;21.40;99.90;;;;;;5012607;28;20042;-84
2023/09/18 11:14:56;;;;;;;9.68;6.60;;;21.50;99.90;;;;;;5009820;28;20046;-85
2023/09/18 11:17:36;;;;;;;9.63;5.80;;;21.50;99.90;;;;;;5004011;28;20069;-85
2023/09/18 11:20:17;;;;;;;10.43;5.50;;;21.60;99.90;;;;;;5014306;28;20045;-85
2023/09/18 11:22:57;;;;;;;13.25;5.22;;;21.70;99.90;;;;;;5000572;28;20046;-84
2023/09/18 11:25:40;;;;;;;17.83;6.38;;;21.60;99.90;;;;;;5010504;28;20042;-84
2023/09/18 11:28:07;;;;;;;7.28;4.72;;;21.60;99.90;;;;;;5013579;28;20042;-85
2023/09/18 11:30:36;;;;;;;59.30;10.23;;;21.60;99.90;;;;;;4994467;28;20042;-84
2023/09/18 11:33:08;;;;;;;23.30;5.35;;;21.50;99.90;;;;;;4994945;28;20042;-84
2023/09/18 11:35:38;;;;;;;70.53;10.25;;;21.60;99.90;;;;;;4988109;28;20410;-84
2023/09/18 11:38:07;;;;;;;12.68;4.57;;;21.90;99.90;;;;;;4995031;28;20039;-84
2023/09/18 11:40:40;;;;;;;10.13;4.28;;;21.90;99.90;;;;;;4994860;28;20073;-84
2023/09/18 11:43:29;;;;;;;19.63;5.63;;;21.90;99.90;;;;;;4994490;28;20402;-84
2023/09/18 11:45:57;;;;;;;21.48;5.45;;;22.10;99.90;;;;;;5001142;28;20042;-84
2023/09/18 11:48:24;;;;;;;9.85;4.57;;;22.20;99.90;;;;;;5002140;28;20074;-84
2023/09/18 11:50:54;;;;;;;8.48;4.18;;;22.30;99.90;;;;;;4994560;28;20502;-84
2023/09/18 11:53:21;;;;;;;9.00;3.53;;;22.20;99.90;;;;;;5012678;28;20046;-85
2023/09/18 11:55:47;;;;;;;7.35;3.67;;;22.20;99.90;;;;;;4985935;28;20064;-86
2023/09/18 11:58:14;;;;;;;8.10;3.50;;;22.10;99.90;;;;;;5014189;28;20864;-84
2023/09/18 12:00:48;;;;;;;6.70;3.50;;;22.30;99.90;;;;;;4997930;28;20049;-83
2023/09/18 12:03:24;;;;;;;7.28;3.30;;;22.40;99.90;;;;;;4998306;28;20034;-84
2023/09/18 12:06:00;;;;;;;8.40;3.28;;;22.50;99.90;;;;;;4996539;28;20078;-83
2023/09/18 12:08:30;;;;;;;5.55;3.40;;;22.30;99.90;;;;;;4994142;28;20053;-84
2023/09/18 12:10:58;;;;;;;5.03;3.20;;;22.20;99.90;;;;;;4994448;28;20045;-83
2023/09/18 12:13:26;;;;;;;6.53;2.83;;;22.20;99.90;;;;;;4977822;28;20099;-83
2023/09/18 12:15:58;;;;;;;5.40;3.22;;;22.30;99.90;;;;;;4978361;28;20038;-83
2023/09/18 12:18:28;;;;;;;8.63;2.97;;;22.30;99.90;;;;;;5010815;28;20053;-84
2023/09/18 12:21:01;;;;;;;4.43;2.80;;;22.40;99.90;;;;;;4980498;28;20054;-83
2023/09/18 12:23:29;;;;;;;6.40;3.10;;;22.40;99.90;;;;;;4993901;28;20074;-83
2023/09/18 12:26:01;;;;;;;4.32;2.90;;;22.30;99.90;;;;;;4977882;28;20088;-82
2023/09/18 12:28:28;;;;;;;5.43;2.83;;;22.30;99.90;;;;;;5009670;28;20049;-83
2023/09/18 12:30:56;;;;;;;5.43;2.85;;;22.40;99.90;;;;;;4994033;28;20065;-83
2023/09/18 12:33:23;;;;;;;4.88;2.80;;;22.30;99.90;;;;;;5011301;28;20191;-82
2023/09/18 12:35:54;;;;;;;5.80;2.80;;;22.10;99.90;;;;;;4996970;28;20042;-83
2023/09/18 12:38:24;;;;;;;6.25;3.05;;;22.00;99.90;;;;;;5013597;28;20038;-83
2023/09/18 12:40:52;;;;;;;5.30;2.50;;;21.90;99.90;;;;;;4985546;28;20041;-83
2023/09/18 12:43:22;;;;;;;6.57;2.80;;;21.80;99.90;;;;;;4977671;28;20491;-83
2023/09/18 12:45:50;;;;;;;5.30;2.75;;;21.70;99.90;;;;;;4978130;28;20038;-83
2023/09/18 12:48:17;;;;;;;5.22;2.70;;;21.70;99.90;;;;;;4984739;28;20105;-83
2023/09/18 12:50:43;;;;;;;6.63;2.40;;;21.70;99.90;;;;;;4993826;28;20134;-83
2023/09/18 12:53:15;;;;;;;6.18;2.92;;;21.70;99.90;;;;;;4977985;28;20136;-83